sensor_id;sensor_type;location;lat;lon;timestamp;pressure;altitude;pressure_sealevel;temperature;humidity
44001;BME280;29660;42.892;24.710;2022-12-07T00:04:39;96808.53;;;1.61;100.00
44001;BME280;29660;42.892;24.710;2022-12-07T00:09:41;96771.63;;;1.39;100.00
44001;BME280;29660;42.892;24.710;2022-12-07T00:14:43;96943.03;;;2.50;100.00
44001;BME280;29660;42.892;24.710;2022-12-07T00:19:47;97064.28;;;3.17;100.00
44001;BME280;29660;42.892;24.710;2022-12-07T00:24:49;96998.16;;;2.85;100.00
44001;BME280;29660;42.892;24.710;2022-12-07T00:29:51;96803.78;;;1.58;100.00
44001;BME280;29660;42.892;24.710;2022-12-07T00:34:53;96810.53;;;1.54;100.00
44001;BME280;29660;42.892;24.710;2022-12-07T00:39:55;96821.47;;;1.62;100.00
44001;BME280;29660;42.892;24.710;2022-12-07T00:44:57;96807.75;;;1.60;100.00
44001;BME280;29660;42.892;24.710;2022-12-07T00:49:59;96895.59;;;2.16;100.00
44001;BME280;29660;42.892;24.710;2022-12-07T00:55:02;97062.31;;;3.25;100.00
44001;BME280;29660;42.892;24.710;2022-12-07T01:00:04;96795.69;;;1.76;100.00
44001;BME280;29660;42.892;24.710;2022-12-07T01:05:07;96785.97;;;1.77;100.00
44001;BME280;29660;42.892;24.710;2022-12-07T01:10:10;97056.72;;;3.38;100.00
44001;BME280;29660;42.892;24.710;2022-12-07T01:15:12;96817.03;;;2.08;100.00
44001;BME280;29660;42.892;24.710;2022-12-07T01:20:14;97015.84;;;3.52;100.00
44001;BME280;29660;42.892;24.710;2022-12-07T01:25:18;96982.84;;;3.33;100.00
44001;BME280;29660;42.892;24.710;2022-12-07T01:30:20;96815.72;;;2.22;100.00
44001;BME280;29660;42.892;24.710;2022-12-07T01:35:22;97016.00;;;3.62;100.00
44001;BME280;29660;42.892;24.710;2022-12-07T01:40:24;97019.66;;;3.61;100.00
44001;BME280;29660;42.892;24.710;2022-12-07T01:45:42;97027.09;;;3.64;100.00
44001;BME280;29660;42.892;24.710;2022-12-07T01:50:46;96746.66;;;1.99;100.00
44001;BME280;29660;42.892;24.710;2022-12-07T01:55:52;96975.75;;;3.50;100.00
44001;BME280;29660;42.892;24.710;2022-12-07T02:00:54;96968.53;;;3.45;100.00
44001;BME280;29660;42.892;24.710;2022-12-07T02:05:56;96693.81;;;1.83;100.00
44001;BME280;29660;42.892;24.710;2022-12-07T02:11:02;96991.13;;;3.75;100.00
44001;BME280;29660;42.892;24.710;2022-12-07T02:27:56;96983.25;;;3.80;100.00
44001;BME280;29660;42.892;24.710;2022-12-07T02:33:06;96711.19;;;2.01;100.00
44001;BME280;29660;42.892;24.710;2022-12-07T02:38:35;96984.25;;;3.74;100.00
44001;BME280;29660;42.892;24.710;2022-12-07T02:43:42;96989.22;;;3.71;100.00
44001;BME280;29660;42.892;24.710;2022-12-07T02:48:45;97010.13;;;3.77;100.00
44001;BME280;29660;42.892;24.710;2022-12-07T02:53:49;96826.69;;;2.87;100.00
44001;BME280;29660;42.892;24.710;2022-12-07T03:04:20;96975.19;;;3.87;100.00
44001;BME280;29660;42.892;24.710;2022-12-07T03:09:35;96971.63;;;3.98;100.00
44001;BME280;29660;42.892;24.710;2022-12-07T03:14:47;96770.41;;;2.54;100.00
44001;BME280;29660;42.892;24.710;2022-12-07T03:19:54;96934.72;;;3.59;100.00
44001;BME280;29660;42.892;24.710;2022-12-07T03:25:02;96702.44;;;2.12;100.00
44001;BME280;29660;42.892;24.710;2022-12-07T03:30:49;96988.38;;;3.87;100.00
44001;BME280;29660;42.892;24.710;2022-12-07T03:36:12;96934.56;;;3.49;100.00
44001;BME280;29660;42.892;24.710;2022-12-07T03:41:22;96993.75;;;3.75;100.00
44001;BME280;29660;42.892;24.710;2022-12-07T03:57:24;96923.72;;;3.45;100.00
44001;BME280;29660;42.892;24.710;2022-12-07T04:02:28;96969.28;;;3.80;100.00
44001;BME280;29660;42.892;24.710;2022-12-07T04:07:30;96976.97;;;3.81;100.00
44001;BME280;29660;42.892;24.710;2022-12-07T04:12:32;96712.78;;;2.19;100.00
44001;BME280;29660;42.892;24.710;2022-12-07T04:17:35;96887.25;;;3.20;100.00
44001;BME280;29660;42.892;24.710;2022-12-07T04:22:37;96947.22;;;3.47;100.00
44001;BME280;29660;42.892;24.710;2022-12-07T04:27:39;96967.69;;;3.79;100.00
44001;BME280;29660;42.892;24.710;2022-12-07T04:32:41;96949.84;;;3.86;100.00
44001;BME280;29660;42.892;24.710;2022-12-07T04:37:43;96740.25;;;2.62;100.00
44001;BME280;29660;42.892;24.710;2022-12-07T04:42:45;96953.78;;;4.05;100.00
44001;BME280;29660;42.892;24.710;2022-12-07T04:48:05;96907.03;;;3.79;100.00
44001;BME280;29660;42.892;24.710;2022-12-07T04:53:07;96936.78;;;3.96;100.00
44001;BME280;29660;42.892;24.710;2022-12-07T04:58:09;96944.19;;;3.99;100.00
44001;BME280;29660;42.892;24.710;2022-12-07T05:03:11;96903.38;;;3.85;100.00
44001;BME280;29660;42.892;24.710;2022-12-07T05:08:13;96925.72;;;3.99;100.00
44001;BME280;29660;42.892;24.710;2022-12-07T05:13:15;96876.72;;;3.59;100.00
44001;BME280;29660;42.892;24.710;2022-12-07T05:18:18;96932.22;;;3.91;100.00
44001;BME280;29660;42.892;24.710;2022-12-07T05:23:20;96636.84;;;2.06;100.00
44001;BME280;29660;42.892;24.710;2022-12-07T05:28:22;96843.78;;;3.40;100.00
44001;BME280;29660;42.892;24.710;2022-12-07T05:33:24;96671.69;;;2.35;100.00
44001;BME280;29660;42.892;24.710;2022-12-07T05:38:26;96850.13;;;3.22;100.00
44001;BME280;29660;42.892;24.710;2022-12-07T05:43:29;96922.03;;;3.56;100.00
44001;BME280;29660;42.892;24.710;2022-12-07T05:48:31;96787.78;;;2.55;100.00
44001;BME280;29660;42.892;24.710;2022-12-07T05:53:33;96722.91;;;2.27;100.00
44001;BME280;29660;42.892;24.710;2022-12-07T05:58:35;96937.72;;;3.68;100.00
44001;BME280;29660;42.892;24.710;2022-12-07T06:03:55;96713.56;;;2.19;100.00
44001;BME280;29660;42.892;24.710;2022-12-07T06:08:57;96684.97;;;2.06;100.00
44001;BME280;29660;42.892;24.710;2022-12-07T06:14:00;96804.53;;;2.83;100.00
44001;BME280;29660;42.892;24.710;2022-12-07T06:19:02;96861.06;;;3.31;100.00
44001;BME280;29660;42.892;24.710;2022-12-07T06:24:04;96718.59;;;2.38;100.00
44001;BME280;29660;42.892;24.710;2022-12-07T06:29:06;96669.34;;;2.16;100.00
44001;BME280;29660;42.892;24.710;2022-12-07T06:34:11;96939.78;;;3.83;100.00
44001;BME280;29660;42.892;24.710;2022-12-07T06:39:14;96894.75;;;3.67;100.00
44001;BME280;29660;42.892;24.710;2022-12-07T06:44:16;96635.31;;;2.10;100.00
44001;BME280;29660;42.892;24.710;2022-12-07T06:49:18;96662.63;;;2.26;100.00
44001;BME280;29660;42.892;24.710;2022-12-07T07:01:34;96768.38;;;2.78;100.00
44001;BME280;29660;42.892;24.710;2022-12-07T07:06:37;96761.91;;;2.86;100.00
44001;BME280;29660;42.892;24.710;2022-12-07T07:11:39;96756.16;;;2.89;100.00
44001;BME280;29660;42.892;24.710;2022-12-07T07:16:41;96925.91;;;4.14;100.00
44001;BME280;29660;42.892;24.710;2022-12-07T07:21:43;96698.91;;;2.79;100.00
44001;BME280;29660;42.892;24.710;2022-12-07T07:26:46;96923.84;;;4.43;100.00
44001;BME280;29660;42.892;24.710;2022-12-07T07:31:47;96937.53;;;4.67;100.00
44001;BME280;29660;42.892;24.710;2022-12-07T07:36:49;96892.75;;;4.51;100.00
44001;BME280;29660;42.892;24.710;2022-12-07T07:41:52;96938.84;;;4.97;100.00
44001;BME280;29660;42.892;24.710;2022-12-07T07:46:59;96894.66;;;4.87;100.00
44001;BME280;29660;42.892;24.710;2022-12-07T07:52:02;96922.66;;;5.21;100.00
44001;BME280;29660;42.892;24.710;2022-12-07T07:57:04;96926.88;;;5.22;100.00
44001;BME280;29660;42.892;24.710;2022-12-07T08:02:07;96923.19;;;5.65;100.00
44001;BME280;29660;42.892;24.710;2022-12-07T08:07:12;96584.16;;;3.75;100.00
44001;BME280;29660;42.892;24.710;2022-12-07T08:12:14;96728.34;;;4.71;100.00
44001;BME280;29660;42.892;24.710;2022-12-07T08:17:16;96785.06;;;5.00;100.00
44001;BME280;29660;42.892;24.710;2022-12-07T08:22:18;96692.44;;;4.70;100.00
44001;BME280;29660;42.892;24.710;2022-12-07T08:27:20;96837.00;;;5.84;100.00
44001;BME280;29660;42.892;24.710;2022-12-07T08:32:25;96903.63;;;6.34;100.00
44001;BME280;29660;42.892;24.710;2022-12-07T08:37:27;96855.38;;;6.11;100.00
44001;BME280;29660;42.892;24.710;2022-12-07T08:42:29;96671.09;;;4.86;100.00
44001;BME280;29660;42.892;24.710;2022-12-07T08:47:44;96934.41;;;6.55;100.00
44001;BME280;29660;42.892;24.710;2022-12-07T08:52:53;96901.53;;;6.46;100.00
44001;BME280;29660;42.892;24.710;2022-12-07T08:58:02;96864.19;;;6.43;100.00
44001;BME280;29660;42.892;24.710;2022-12-07T09:03:04;96781.78;;;6.13;100.00
44001;BME280;29660;42.892;24.710;2022-12-07T09:08:07;96681.41;;;5.86;100.00
44001;BME280;29660;42.892;24.710;2022-12-07T09:13:09;96695.72;;;6.26;100.00
44001;BME280;29660;42.892;24.710;2022-12-07T09:18:11;96685.38;;;6.40;98.44
44001;BME280;29660;42.892;24.710;2022-12-07T09:23:14;96865.31;;;7.88;99.90
44001;BME280;29660;42.892;24.710;2022-12-07T09:28:16;96849.84;;;8.00;98.07
44001;BME280;29660;42.892;24.710;2022-12-07T09:33:36;96804.84;;;8.19;98.74
44001;BME280;29660;42.892;24.710;2022-12-07T09:38:38;96649.59;;;7.28;97.11
44001;BME280;29660;42.892;24.710;2022-12-07T09:43:40;96838.28;;;8.70;95.16
44001;BME280;29660;42.892;24.710;2022-12-07T09:48:43;96821.97;;;8.81;95.39
44001;BME280;29660;42.892;24.710;2022-12-07T09:53:47;96593.09;;;7.67;93.14
44001;BME280;29660;42.892;24.710;2022-12-07T09:58:55;96735.59;;;8.74;93.61
44001;BME280;29660;42.892;24.710;2022-12-07T10:04:16;96823.91;;;9.53;92.90
44001;BME280;29660;42.892;24.710;2022-12-07T10:09:21;96631.16;;;8.44;92.19
44001;BME280;29660;42.892;24.710;2022-12-07T10:14:27;96789.38;;;9.67;92.16
44001;BME280;29660;42.892;24.710;2022-12-07T10:19:45;96685.72;;;9.14;90.43
44001;BME280;29660;42.892;24.710;2022-12-07T10:24:47;96560.66;;;8.52;89.05
44001;BME280;29660;42.892;24.710;2022-12-07T10:29:51;96542.38;;;8.69;87.48
44001;BME280;29660;42.892;24.710;2022-12-07T10:35:23;96759.19;;;10.33;87.75
44001;BME280;29660;42.892;24.710;2022-12-07T10:40:30;96752.03;;;10.47;85.20
44001;BME280;29660;42.892;24.710;2022-12-07T10:45:35;96706.88;;;10.37;85.20
44001;BME280;29660;42.892;24.710;2022-12-07T10:51:18;96744.63;;;10.77;82.68
44001;BME280;29660;42.892;24.710;2022-12-07T10:56:54;96740.28;;;10.81;82.51
44001;BME280;29660;42.892;24.710;2022-12-07T11:08:02;96713.97;;;11.16;78.59
44001;BME280;29660;42.892;24.710;2022-12-07T11:18:23;96636.19;;;11.36;78.90
44001;BME280;29660;42.892;24.710;2022-12-07T11:23:45;96684.91;;;11.92;78.55
44001;BME280;29660;42.892;24.710;2022-12-07T11:54:38;96461.28;;;11.02;75.71
44001;BME280;29660;42.892;24.710;2022-12-07T11:59:47;96609.19;;;12.27;75.24
44001;BME280;29660;42.892;24.710;2022-12-07T12:05:17;96427.00;;;11.41;73.72
44001;BME280;29660;42.892;24.710;2022-12-07T12:20:55;96606.00;;;12.96;67.70
44001;BME280;29660;42.892;24.710;2022-12-07T12:26:02;96424.63;;;12.01;69.57
44001;BME280;29660;42.892;24.710;2022-12-07T12:46:44;96194.63;;;10.66;68.91
44001;BME280;29660;42.892;24.710;2022-12-07T12:51:52;96533.53;;;12.84;66.18
44001;BME280;29660;42.892;24.710;2022-12-07T12:57:12;96616.34;;;13.29;68.63
44001;BME280;29660;42.892;24.710;2022-12-07T13:02:21;96613.16;;;13.27;69.44
44001;BME280;29660;42.892;24.710;2022-12-07T13:28:49;96602.53;;;12.96;71.06
44001;BME280;29660;42.892;24.710;2022-12-07T13:33:51;96600.94;;;12.86;70.72
44001;BME280;29660;42.892;24.710;2022-12-07T13:38:58;96524.91;;;12.30;72.53
44001;BME280;29660;42.892;24.710;2022-12-07T13:44:09;96612.81;;;12.63;73.41
44001;BME280;29660;42.892;24.710;2022-12-07T13:49:36;96407.88;;;11.16;75.17
44001;BME280;29660;42.892;24.710;2022-12-07T13:59:48;96386.97;;;10.51;78.24
44001;BME280;29660;42.892;24.710;2022-12-07T14:04:51;96343.25;;;9.88;79.88
44001;BME280;29660;42.892;24.710;2022-12-07T14:10:05;96600.84;;;11.39;81.38
44001;BME280;29660;42.892;24.710;2022-12-07T14:15:20;96410.50;;;9.94;82.69
44001;BME280;29660;42.892;24.710;2022-12-07T14:25:50;96553.16;;;10.46;85.33
44001;BME280;29660;42.892;24.710;2022-12-07T14:30:53;96642.63;;;10.80;87.83
44001;BME280;29660;42.892;24.710;2022-12-07T14:35:56;96609.56;;;10.53;88.35
44001;BME280;29660;42.892;24.710;2022-12-07T14:41:00;96422.22;;;9.05;88.97
44001;BME280;29660;42.892;24.710;2022-12-07T14:46:44;96631.47;;;10.18;90.71
44001;BME280;29660;42.892;24.710;2022-12-07T14:51:47;96615.78;;;9.83;92.56
44001;BME280;29660;42.892;24.710;2022-12-07T14:57:10;96393.41;;;8.18;93.36
44001;BME280;29660;42.892;24.710;2022-12-07T15:02:14;96586.13;;;9.20;94.78
44001;BME280;29660;42.892;24.710;2022-12-07T15:07:20;96601.34;;;8.95;96.44
44001;BME280;29660;42.892;24.710;2022-12-07T15:12:41;96563.31;;;8.52;96.85
44001;BME280;29660;42.892;24.710;2022-12-07T15:17:43;96374.34;;;7.20;97.41
44001;BME280;29660;42.892;24.710;2022-12-07T15:22:45;96400.41;;;7.12;98.50
44001;BME280;29660;42.892;24.710;2022-12-07T15:27:47;96425.88;;;7.08;98.73
44001;BME280;29660;42.892;24.710;2022-12-07T15:32:50;96680.03;;;8.48;100.00
44001;BME280;29660;42.892;24.710;2022-12-07T15:37:53;96547.72;;;7.63;100.00
44001;BME280;29660;42.892;24.710;2022-12-07T15:42:55;96685.38;;;8.09;100.00
44001;BME280;29660;42.892;24.710;2022-12-07T15:47:58;96460.66;;;6.62;100.00
44001;BME280;29660;42.892;24.710;2022-12-07T15:53:19;96385.00;;;5.97;100.00
44001;BME280;29660;42.892;24.710;2022-12-07T15:58:22;96590.81;;;7.05;100.00
44001;BME280;29660;42.892;24.710;2022-12-07T16:03:24;96442.91;;;6.08;100.00
44001;BME280;29660;42.892;24.710;2022-12-07T16:08:26;96606.72;;;7.05;100.00
44001;BME280;29660;42.892;24.710;2022-12-07T16:13:34;96406.56;;;5.54;100.00
44001;BME280;29660;42.892;24.710;2022-12-07T16:18:36;96337.69;;;4.89;100.00
44001;BME280;29660;42.892;24.710;2022-12-07T16:23:39;96608.53;;;6.50;100.00
44001;BME280;29660;42.892;24.710;2022-12-07T16:28:43;96448.38;;;5.32;100.00
44001;BME280;29660;42.892;24.710;2022-12-07T16:33:45;96446.28;;;5.03;100.00
44001;BME280;29660;42.892;24.710;2022-12-07T16:38:48;96472.97;;;5.17;100.00
44001;BME280;29660;42.892;24.710;2022-12-07T16:43:53;96666.31;;;6.28;100.00
44001;BME280;29660;42.892;24.710;2022-12-07T16:48:56;96690.41;;;6.36;100.00
44001;BME280;29660;42.892;24.710;2022-12-07T16:53:58;96424.28;;;4.47;100.00
44001;BME280;29660;42.892;24.710;2022-12-07T16:59:00;96687.81;;;6.06;100.00
44001;BME280;29660;42.892;24.710;2022-12-07T17:04:03;96426.06;;;4.15;100.00
44001;BME280;29660;42.892;24.710;2022-12-07T17:09:06;96469.91;;;4.32;100.00
44001;BME280;29660;42.892;24.710;2022-12-07T17:14:12;96663.66;;;5.51;100.00
44001;BME280;29660;42.892;24.710;2022-12-07T17:19:33;96475.41;;;4.10;100.00
44001;BME280;29660;42.892;24.710;2022-12-07T17:24:35;96271.47;;;2.68;100.00
44001;BME280;29660;42.892;24.710;2022-12-07T17:29:37;96524.53;;;4.21;100.00
44001;BME280;29660;42.892;24.710;2022-12-07T17:34:58;96739.50;;;5.40;100.00
44001;BME280;29660;42.892;24.710;2022-12-07T17:40:02;96463.22;;;3.51;100.00
44001;BME280;29660;42.892;24.710;2022-12-07T17:45:07;96482.22;;;3.53;100.00
44001;BME280;29660;42.892;24.710;2022-12-07T17:50:09;96486.97;;;3.51;100.00
44001;BME280;29660;42.892;24.710;2022-12-07T17:55:12;96460.94;;;3.23;100.00
44001;BME280;29660;42.892;24.710;2022-12-07T18:00:14;96485.19;;;3.25;100.00
44001;BME280;29660;42.892;24.710;2022-12-07T18:05:16;96518.47;;;3.36;100.00
44001;BME280;29660;42.892;24.710;2022-12-07T18:10:18;96549.63;;;3.44;100.00
44001;BME280;29660;42.892;24.710;2022-12-07T18:15:20;96482.06;;;2.95;100.00
44001;BME280;29660;42.892;24.710;2022-12-07T18:20:22;96609.94;;;3.67;100.00
44001;BME280;29660;42.892;24.710;2022-12-07T18:25:26;96563.75;;;3.28;100.00
44001;BME280;29660;42.892;24.710;2022-12-07T18:30:27;96767.31;;;4.48;100.00
44001;BME280;29660;42.892;24.710;2022-12-07T18:35:50;96590.09;;;3.28;100.00
44001;BME280;29660;42.892;24.710;2022-12-07T18:40:53;96762.91;;;4.27;100.00
44001;BME280;29660;42.892;24.710;2022-12-07T18:45:55;96764.00;;;4.31;100.00
44001;BME280;29660;42.892;24.710;2022-12-07T18:51:00;96717.47;;;3.92;100.00
44001;BME280;29660;42.892;24.710;2022-12-07T18:56:07;96514.56;;;2.52;100.00
44001;BME280;29660;42.892;24.710;2022-12-07T19:01:11;96750.22;;;3.97;100.00
44001;BME280;29660;42.892;24.710;2022-12-07T19:06:13;96774.03;;;4.02;100.00
44001;BME280;29660;42.892;24.710;2022-12-07T19:11:22;96756.34;;;3.70;100.00
44001;BME280;29660;42.892;24.710;2022-12-07T19:16:49;96479.63;;;1.91;100.00
44001;BME280;29660;42.892;24.710;2022-12-07T19:21:53;96766.56;;;3.66;100.00
44001;BME280;29660;42.892;24.710;2022-12-07T19:26:56;96798.72;;;3.63;100.00
44001;BME280;29660;42.892;24.710;2022-12-07T19:31:59;96572.56;;;2.18;100.00
44001;BME280;29660;42.892;24.710;2022-12-07T19:37:02;96565.56;;;2.07;100.00
44001;BME280;29660;42.892;24.710;2022-12-07T19:42:05;96823.31;;;3.47;100.00
44001;BME280;29660;42.892;24.710;2022-12-07T19:47:11;96601.59;;;2.07;100.00
44001;BME280;29660;42.892;24.710;2022-12-07T19:52:16;96545.25;;;1.64;100.00
44001;BME280;29660;42.892;24.710;2022-12-07T19:57:18;96822.19;;;3.21;100.00
44001;BME280;29660;42.892;24.710;2022-12-07T20:02:20;96561.59;;;1.66;100.00
44001;BME280;29660;42.892;24.710;2022-12-07T20:07:22;96715.38;;;2.53;100.00
44001;BME280;29660;42.892;24.710;2022-12-07T20:12:24;96496.69;;;1.16;100.00
44001;BME280;29660;42.892;24.710;2022-12-07T20:17:45;96539.84;;;1.54;100.00
44001;BME280;29660;42.892;24.710;2022-12-07T20:22:47;96720.13;;;2.73;100.00
44001;BME280;29660;42.892;24.710;2022-12-07T20:27:49;96564.81;;;1.90;100.00
44001;BME280;29660;42.892;24.710;2022-12-07T20:32:51;96768.06;;;3.13;100.00
44001;BME280;29660;42.892;24.710;2022-12-07T20:37:54;96811.84;;;3.36;100.00
44001;BME280;29660;42.892;24.710;2022-12-07T20:42:56;96515.47;;;1.41;100.00
44001;BME280;29660;42.892;24.710;2022-12-07T20:47:58;96513.09;;;1.40;100.00
44001;BME280;29660;42.892;24.710;2022-12-07T20:53:00;96812.22;;;3.23;100.00
44001;BME280;29660;42.892;24.710;2022-12-07T20:58:02;96741.25;;;2.78;100.00
44001;BME280;29660;42.892;24.710;2022-12-07T21:03:04;96758.66;;;2.79;100.00
44001;BME280;29660;42.892;24.710;2022-12-07T21:08:06;96802.03;;;2.93;100.00
44001;BME280;29660;42.892;24.710;2022-12-07T21:13:08;96742.25;;;2.55;100.00
44001;BME280;29660;42.892;24.710;2022-12-07T21:18:10;96500.84;;;0.95;100.00
44001;BME280;29660;42.892;24.710;2022-12-07T21:23:12;96555.91;;;1.23;100.00
44001;BME280;29660;42.892;24.710;2022-12-07T21:28:14;96829.34;;;2.87;100.00
44001;BME280;29660;42.892;24.710;2022-12-07T21:33:16;96837.66;;;2.79;100.00
44001;BME280;29660;42.892;24.710;2022-12-07T21:38:18;96834.72;;;2.75;100.00
44001;BME280;29660;42.892;24.710;2022-12-07T21:43:20;96759.34;;;2.35;100.00
44001;BME280;29660;42.892;24.710;2022-12-07T21:48:22;96680.59;;;1.78;100.00
44001;BME280;29660;42.892;24.710;2022-12-07T21:53:24;96853.03;;;2.87;100.00
44001;BME280;29660;42.892;24.710;2022-12-07T21:58:26;96637.69;;;1.44;100.00
44001;BME280;29660;42.892;24.710;2022-12-07T22:03:28;96705.28;;;1.94;100.00
44001;BME280;29660;42.892;24.710;2022-12-07T22:08:30;96869.16;;;3.07;100.00
44001;BME280;29660;42.892;24.710;2022-12-07T22:13:32;96687.44;;;1.96;100.00
44001;BME280;29660;42.892;24.710;2022-12-07T22:18:53;96641.06;;;1.56;100.00
44001;BME280;29660;42.892;24.710;2022-12-07T22:23:55;96812.22;;;2.67;100.00
44001;BME280;29660;42.892;24.710;2022-12-07T22:28:58;96702.75;;;1.99;100.00
44001;BME280;29660;42.892;24.710;2022-12-07T22:34:01;96808.94;;;2.77;100.00
44001;BME280;29660;42.892;24.710;2022-12-07T22:39:03;96615.56;;;1.40;100.00
44001;BME280;29660;42.892;24.710;2022-12-07T22:44:06;96593.63;;;1.17;100.00
44001;BME280;29660;42.892;24.710;2022-12-07T22:49:08;96871.66;;;2.80;100.00
44001;BME280;29660;42.892;24.710;2022-12-07T22:54:13;96782.78;;;2.37;100.00
44001;BME280;29660;42.892;24.710;2022-12-07T22:59:17;96850.25;;;2.93;100.00
44001;BME280;29660;42.892;24.710;2022-12-07T23:04:19;96798.16;;;2.62;100.00
44001;BME280;29660;42.892;24.710;2022-12-07T23:09:21;96796.75;;;2.54;100.00
44001;BME280;29660;42.892;24.710;2022-12-07T23:14:29;96534.44;;;0.81;100.00
44001;BME280;29660;42.892;24.710;2022-12-07T23:19:31;96855.38;;;2.83;100.00
44001;BME280;29660;42.892;24.710;2022-12-07T23:24:33;96691.16;;;1.66;100.00
44001;BME280;29660;42.892;24.710;2022-12-07T23:29:35;96823.00;;;2.49;100.00
44001;BME280;29660;42.892;24.710;2022-12-07T23:34:37;96602.53;;;1.16;100.00
44001;BME280;29660;42.892;24.710;2022-12-07T23:39:39;96642.88;;;1.39;100.00
44001;BME280;29660;42.892;24.710;2022-12-07T23:44:41;96634.81;;;1.29;100.00
44001;BME280;29660;42.892;24.710;2022-12-07T23:49:43;96870.28;;;2.78;100.00
44001;BME280;29660;42.892;24.710;2022-12-07T23:54:45;96893.03;;;2.67;100.00
44001;BME280;29660;42.892;24.710;2022-12-07T23:59:47;96876.75;;;2.70;100.00
